createdAt,value
2022-09-26T00:00:48.681Z,2.31
2022-09-26T00:01:51.419Z,2.54
2022-09-26T00:02:53.953Z,2.13
2022-09-26T00:03:56.458Z,2.49
2022-09-26T00:04:58.937Z,2.54
2022-09-26T00:06:01.375Z,2.44
2022-09-26T00:07:03.807Z,2.20
2022-09-26T00:08:06.257Z,2.27
2022-09-26T00:09:08.868Z,1.93
2022-09-26T00:10:11.776Z,2.09
2022-09-26T00:11:14.229Z,1.73
2022-09-26T00:12:16.644Z,3.56
2022-09-26T00:13:19.081Z,2.39
2022-09-26T00:14:21.518Z,2.97
2022-09-26T00:15:23.997Z,2.25
2022-09-26T00:16:26.898Z,1.96
2022-09-26T00:17:29.392Z,2.27
2022-09-26T00:18:31.845Z,2.29
2022-09-26T00:19:34.278Z,2.65
2022-09-26T00:20:36.955Z,2.15
2022-09-26T00:21:39.391Z,1.82
2022-09-26T00:22:41.826Z,2.05
2022-09-26T00:23:44.263Z,2.60
2022-09-26T00:24:46.701Z,2.19
2022-09-26T00:25:49.167Z,2.06
2022-09-26T00:26:51.707Z,2.25
2022-09-26T00:27:54.144Z,2.84
2022-09-26T00:28:56.576Z,2.35
2022-09-26T00:29:59.029Z,2.30
2022-09-26T00:31:01.698Z,2.20
2022-09-26T00:32:04.446Z,1.98
2022-09-26T00:33:06.887Z,2.15
2022-09-26T00:34:09.319Z,2.65
2022-09-26T00:35:11.952Z,2.31
2022-09-26T00:36:14.836Z,2.11
2022-09-26T00:37:17.315Z,2.38
2022-09-26T00:38:19.788Z,2.17
2022-09-26T00:39:22.235Z,2.13
2022-09-26T00:40:24.944Z,2.07
2022-09-26T00:41:27.466Z,2.23
2022-09-26T00:42:29.895Z,2.40
2022-09-26T00:43:32.333Z,2.04
2022-09-26T00:44:34.762Z,1.82
2022-09-26T00:45:37.228Z,2.51
2022-09-26T00:46:40.004Z,2.23
2022-09-26T00:47:42.476Z,2.15
2022-09-26T00:48:44.940Z,2.59
2022-09-26T00:49:47.407Z,1.81
2022-09-26T00:50:50.100Z,2.40
2022-09-26T00:51:52.578Z,1.99
2022-09-26T00:52:55.014Z,1.88
2022-09-26T00:53:57.469Z,1.99
2022-09-26T00:54:59.915Z,2.25
2022-09-26T00:56:02.445Z,1.97
2022-09-26T00:57:04.907Z,2.87
2022-09-26T00:58:07.343Z,2.82
2022-09-26T00:59:09.796Z,5.23
2022-09-26T01:00:12.533Z,5.59
2022-09-26T01:01:15.118Z,4.52
2022-09-26T01:02:18.019Z,3.83
2022-09-26T01:03:20.575Z,3.99
2022-09-26T01:04:23.005Z,3.19
2022-09-26T01:05:25.480Z,3.29
2022-09-26T01:06:27.947Z,3.31
2022-09-26T01:07:30.407Z,3.09
2022-09-26T01:08:32.857Z,3.06
2022-09-26T01:09:35.321Z,2.69
2022-09-26T01:10:37.963Z,3.11
2022-09-26T01:11:40.420Z,2.05
2022-09-26T01:12:42.903Z,2.84
2022-09-26T01:13:45.399Z,2.71
2022-09-26T01:14:47.870Z,2.66
2022-09-26T01:15:50.329Z,2.59
2022-09-26T01:16:53.140Z,2.72
2022-09-26T01:17:55.711Z,2.85
2022-09-26T01:18:58.165Z,2.54
2022-09-26T01:20:00.603Z,2.61
2022-09-26T01:21:03.142Z,2.71
2022-09-26T01:22:05.591Z,2.73
2022-09-26T01:23:08.064Z,2.94
2022-09-26T01:24:10.497Z,2.49
2022-09-26T01:25:12.936Z,2.30
2022-09-26T01:26:15.570Z,2.88
2022-09-26T01:27:18.008Z,2.32
2022-09-26T01:28:20.474Z,2.27
2022-09-26T01:29:22.917Z,2.33
2022-09-26T01:30:25.705Z,2.55
2022-09-26T01:31:28.353Z,3.65
2022-09-26T01:32:30.803Z,2.40
2022-09-26T01:33:33.266Z,2.90
2022-09-26T01:34:35.727Z,2.20
2022-09-26T01:35:38.166Z,2.85
2022-09-26T01:36:40.715Z,3.13
2022-09-26T01:37:43.156Z,2.75
2022-09-26T01:38:45.632Z,2.62
2022-09-26T01:39:48.070Z,2.23
2022-09-26T01:40:50.865Z,2.57
2022-09-26T01:41:53.456Z,2.77
2022-09-26T01:42:55.907Z,2.84
2022-09-26T01:43:58.398Z,3.01
2022-09-26T01:45:00.844Z,2.45
2022-09-26T01:46:03.598Z,2.69
2022-09-26T01:47:06.272Z,2.41
2022-09-26T01:48:08.722Z,2.69
2022-09-26T01:49:11.467Z,2.49
2022-09-26T01:50:14.472Z,2.61
2022-09-26T01:51:16.947Z,2.45
2022-09-26T01:52:19.394Z,2.58
2022-09-26T01:53:21.877Z,3.41
2022-09-26T01:54:24.472Z,3.50
2022-09-26T01:55:26.967Z,2.43
2022-09-26T01:56:29.623Z,2.93
2022-09-26T01:57:32.064Z,2.97
2022-09-26T01:58:34.521Z,3.42
2022-09-26T01:59:37.013Z,3.32
2022-09-26T02:00:39.654Z,3.65
2022-09-26T02:01:42.415Z,4.44
2022-09-26T02:02:45.145Z,3.82
2022-09-26T02:03:47.710Z,3.43
2022-09-26T02:04:50.199Z,3.08
2022-09-26T02:05:52.724Z,3.49
2022-09-26T02:06:55.359Z,3.30
2022-09-26T02:07:57.801Z,3.24
2022-09-26T02:09:00.242Z,3.33
2022-09-26T02:10:02.816Z,3.54
2022-09-26T02:11:05.257Z,3.48
2022-09-26T02:12:07.697Z,3.13
2022-09-26T02:13:10.548Z,3.23
2022-09-26T02:14:12.994Z,3.28
2022-09-26T02:15:15.454Z,3.95
2022-09-26T02:16:17.952Z,3.10
2022-09-26T02:17:20.460Z,3.69
2022-09-26T02:18:22.902Z,3.28
2022-09-26T02:19:25.344Z,3.57
2022-09-26T02:20:27.938Z,3.69
2022-09-26T02:21:30.479Z,4.11
2022-09-26T02:22:32.967Z,3.51
2022-09-26T02:23:35.420Z,3.77
2022-09-26T02:24:37.844Z,3.23
2022-09-26T02:25:40.314Z,3.21
2022-09-26T02:26:43.062Z,4.03
2022-09-26T02:27:45.908Z,3.68
2022-09-26T02:28:48.374Z,3.83
2022-09-26T02:29:51.117Z,3.49
2022-09-26T02:30:53.790Z,3.57
2022-09-26T02:31:56.349Z,3.16
2022-09-26T02:32:59.031Z,5.01
2022-09-26T02:34:01.531Z,3.75
2022-09-26T02:35:04.081Z,3.65
2022-09-26T02:36:07.066Z,3.49
2022-09-26T02:37:09.504Z,3.81
2022-09-26T02:38:11.945Z,3.24
2022-09-26T02:39:14.436Z,3.95
2022-09-26T02:40:17.468Z,3.58
2022-09-26T02:41:20.457Z,3.57
2022-09-26T02:42:22.953Z,4.97
2022-09-26T02:43:25.393Z,3.66
2022-09-26T02:44:27.841Z,4.06
2022-09-26T02:45:30.311Z,3.93
2022-09-26T02:46:33.223Z,3.34
2022-09-26T02:47:35.663Z,3.23
2022-09-26T02:48:38.105Z,3.58
2022-09-26T02:49:40.554Z,3.46
2022-09-26T02:50:43.200Z,3.31
2022-09-26T02:51:45.724Z,3.40
2022-09-26T02:52:48.165Z,3.11
2022-09-26T02:53:50.620Z,3.49
2022-09-26T02:54:53.071Z,3.39
2022-09-26T02:55:55.613Z,5.30
2022-09-26T02:56:58.286Z,4.79
2022-09-26T02:58:00.725Z,3.93
2022-09-26T02:59:03.163Z,4.23
2022-09-26T03:00:05.711Z,3.95
2022-09-26T03:01:08.267Z,3.95
2022-09-26T03:02:11.114Z,3.98
2022-09-26T03:03:13.558Z,3.98
2022-09-26T03:04:16.015Z,3.81
2022-09-26T03:05:18.545Z,3.45
2022-09-26T03:06:21.396Z,3.41
2022-09-26T03:07:23.921Z,3.79
2022-09-26T03:08:26.366Z,3.42
2022-09-26T03:09:28.820Z,3.24
2022-09-26T03:10:31.457Z,3.53
2022-09-26T03:11:33.923Z,3.44
2022-09-26T03:12:36.388Z,3.04
2022-09-26T03:13:38.824Z,2.74
2022-09-26T03:14:41.260Z,4.79
2022-09-26T03:15:43.700Z,4.87
2022-09-26T03:16:46.298Z,3.63
2022-09-26T03:17:49.037Z,3.19
2022-09-26T03:18:51.459Z,3.21
2022-09-26T03:19:53.910Z,3.61
2022-09-26T03:20:56.593Z,3.10
2022-09-26T03:21:59.038Z,3.25
2022-09-26T03:23:01.509Z,3.55
2022-09-26T03:24:03.951Z,2.80
2022-09-26T03:25:06.411Z,3.07
2022-09-26T03:26:09.363Z,2.71
2022-09-26T03:27:11.977Z,3.33
2022-09-26T03:28:14.448Z,3.15
2022-09-26T03:29:16.910Z,3.29
2022-09-26T03:30:19.791Z,3.06
2022-09-26T03:31:22.343Z,5.15
2022-09-26T03:32:25.083Z,2.66
2022-09-26T03:33:27.643Z,3.13
2022-09-26T03:34:30.422Z,3.47
2022-09-26T03:35:32.862Z,3.49
2022-09-26T03:36:35.414Z,4.33
2022-09-26T03:37:37.897Z,3.55
2022-09-26T03:38:40.723Z,3.09
2022-09-26T03:39:43.202Z,4.85
2022-09-26T03:40:45.825Z,3.44
2022-09-26T03:41:48.500Z,4.53
2022-09-26T03:42:50.926Z,3.26
2022-09-26T03:43:53.394Z,2.89
2022-09-26T03:44:55.826Z,2.85
2022-09-26T03:45:58.315Z,7.10
2022-09-26T03:47:00.909Z,3.19
2022-09-26T03:48:03.348Z,4.15
2022-09-26T03:49:05.873Z,3.58
2022-09-26T03:50:08.864Z,3.57
2022-09-26T03:51:11.344Z,3.21
2022-09-26T03:52:13.903Z,2.67
2022-09-26T03:53:16.384Z,3.32
2022-09-26T03:54:18.854Z,3.13
2022-09-26T03:55:21.291Z,2.63
2022-09-26T03:56:23.950Z,3.17
2022-09-26T03:57:26.394Z,3.12
2022-09-26T03:58:28.832Z,4.86
2022-09-26T03:59:31.340Z,2.92
2022-09-26T04:00:34.037Z,2.92
2022-09-26T04:01:36.505Z,3.27
2022-09-26T04:02:39.016Z,3.94
2022-09-26T04:03:45.142Z,3.12
2022-09-26T04:04:46.179Z,3.38
2022-09-26T04:05:48.612Z,3.88
2022-09-26T04:06:51.267Z,3.15
2022-09-26T04:07:53.692Z,3.20
2022-09-26T04:08:56.131Z,3.35
2022-09-26T04:09:58.605Z,3.43
2022-09-26T04:11:01.345Z,3.85
2022-09-26T04:12:04.107Z,4.85
2022-09-26T04:13:06.758Z,5.50
2022-09-26T04:14:09.191Z,3.85
2022-09-26T04:15:11.685Z,3.11
2022-09-26T04:16:14.787Z,3.37
2022-09-26T04:17:17.379Z,3.81
2022-09-26T04:18:19.813Z,3.71
2022-09-26T04:19:22.259Z,3.82
2022-09-26T04:20:24.748Z,3.23
2022-09-26T04:21:27.509Z,3.17
2022-09-26T04:22:30.045Z,3.13
2022-09-26T04:23:32.490Z,3.66
2022-09-26T04:24:35.000Z,3.37
2022-09-26T04:25:37.542Z,3.45
2022-09-26T04:26:40.076Z,3.93
2022-09-26T04:27:42.549Z,3.31
2022-09-26T04:28:44.997Z,3.60
2022-09-26T04:29:47.486Z,3.22
2022-09-26T04:30:49.966Z,2.95
2022-09-26T04:31:52.470Z,3.80
2022-09-26T04:32:54.948Z,4.03
2022-09-26T04:33:57.386Z,3.62
2022-09-26T04:34:59.823Z,3.31
2022-09-26T04:36:02.289Z,3.22
2022-09-26T04:37:04.727Z,3.07
2022-09-26T04:38:07.160Z,3.09
2022-09-26T04:39:09.702Z,3.97
2022-09-26T04:40:12.839Z,3.69
2022-09-26T04:41:15.374Z,3.37
2022-09-26T04:42:17.813Z,3.97
2022-09-26T04:43:20.256Z,4.27
2022-09-26T04:44:22.695Z,3.33
2022-09-26T04:45:25.206Z,3.71
2022-09-26T04:46:30.817Z,4.16
2022-09-26T04:47:32.225Z,3.67
2022-09-26T04:48:34.663Z,3.71
2022-09-26T04:49:37.108Z,4.37
2022-09-26T04:50:39.653Z,3.81
2022-09-26T04:51:42.112Z,3.87
2022-09-26T04:52:44.570Z,3.67
2022-09-26T04:53:47.052Z,4.55
2022-09-26T04:54:49.482Z,4.31
2022-09-26T04:55:51.943Z,5.94
2022-09-26T04:56:54.508Z,5.39
2022-09-26T04:57:57.044Z,6.45
2022-09-26T04:58:59.483Z,6.53
2022-09-26T05:00:01.921Z,6.35
2022-09-26T05:01:04.504Z,4.77
2022-09-26T05:02:07.368Z,6.52
2022-09-26T05:03:09.820Z,6.11
2022-09-26T05:04:12.311Z,5.87
2022-09-26T05:05:14.751Z,6.50
2022-09-26T05:06:17.888Z,6.46
2022-09-26T05:07:20.359Z,6.04
2022-09-26T05:08:22.800Z,5.83
2022-09-26T05:09:25.236Z,5.52
2022-09-26T05:10:27.967Z,5.42
2022-09-26T05:11:30.423Z,5.17
2022-09-26T05:12:32.892Z,4.30
2022-09-26T05:13:35.330Z,4.91
2022-09-26T05:14:37.775Z,4.75
2022-09-26T05:15:40.218Z,6.63
2022-09-26T05:16:43.161Z,5.16
2022-09-26T05:17:45.758Z,4.56
2022-09-26T05:18:48.189Z,5.25
2022-09-26T05:19:50.627Z,5.54
2022-09-26T05:20:53.366Z,4.38
2022-09-26T05:21:56.079Z,4.61
2022-09-26T05:22:58.548Z,4.27
2022-09-26T05:24:00.985Z,4.87
2022-09-26T05:25:03.432Z,5.96
2022-09-26T05:27:16.219Z,4.05
2022-09-26T05:28:18.710Z,4.65
2022-09-26T05:29:21.171Z,4.03
2022-09-26T05:30:23.924Z,3.96
2022-09-26T05:31:26.434Z,3.80
2022-09-26T05:32:29.260Z,3.97
2022-09-26T05:33:31.875Z,4.57
2022-09-26T05:34:34.545Z,4.49
2022-09-26T05:35:36.987Z,4.26
2022-09-26T05:36:39.629Z,4.53
2022-09-26T05:37:42.094Z,4.66
2022-09-26T05:38:44.581Z,4.35
2022-09-26T05:39:47.036Z,4.15
2022-09-26T05:40:49.876Z,4.81
2022-09-26T05:41:52.975Z,4.24
2022-09-26T05:42:55.437Z,5.47
2022-09-26T05:43:57.947Z,4.24
2022-09-26T05:45:00.391Z,4.14
2022-09-26T05:46:03.039Z,4.32
2022-09-26T05:47:05.531Z,4.04
2022-09-26T05:48:08.026Z,3.97
2022-09-26T05:49:10.697Z,4.27
2022-09-26T05:50:13.653Z,3.90
2022-09-26T05:51:16.102Z,5.25
2022-09-26T05:52:18.541Z,4.85
2022-09-26T05:53:20.985Z,3.79
2022-09-26T05:54:23.475Z,4.16
2022-09-26T05:55:25.918Z,3.52
2022-09-26T05:56:28.467Z,3.98
2022-09-26T05:57:30.945Z,4.03
2022-09-26T05:58:33.387Z,3.89
2022-09-26T05:59:36.004Z,5.98
2022-09-26T06:00:38.911Z,5.97
2022-09-26T06:01:41.858Z,5.72
2022-09-26T06:02:44.621Z,4.85
2022-09-26T06:03:47.199Z,4.84
2022-09-26T06:04:49.891Z,5.00
2022-09-26T06:05:52.365Z,4.61
2022-09-26T06:06:55.446Z,5.05
2022-09-26T06:07:57.913Z,5.74
2022-09-26T06:09:00.360Z,4.99
2022-09-26T06:10:02.940Z,5.05
2022-09-26T06:11:05.409Z,4.67
2022-09-26T06:12:07.854Z,4.30
2022-09-26T06:13:10.312Z,3.73
2022-09-26T06:14:12.760Z,4.35
2022-09-26T06:15:15.387Z,4.34
2022-09-26T06:16:18.042Z,3.68
2022-09-26T06:17:20.695Z,4.13
2022-09-26T06:18:23.149Z,4.11
2022-09-26T06:19:25.592Z,5.53
2022-09-26T06:20:28.448Z,4.20
2022-09-26T06:21:31.095Z,4.32
2022-09-26T06:22:33.666Z,4.18
2022-09-26T06:23:36.113Z,4.32
2022-09-26T06:24:38.553Z,4.19
2022-09-26T06:25:41.027Z,3.81
2022-09-26T06:26:43.678Z,3.68
2022-09-26T06:27:46.376Z,3.72
2022-09-26T06:28:48.848Z,3.23
2022-09-26T06:29:51.287Z,3.89
2022-09-26T06:30:54.228Z,3.35
2022-09-26T06:31:56.765Z,3.81
2022-09-26T06:32:59.406Z,3.83
2022-09-26T06:34:01.882Z,4.04
2022-09-26T06:35:04.323Z,4.00
2022-09-26T06:36:07.218Z,3.81
2022-09-26T06:37:09.681Z,3.91
2022-09-26T06:38:12.210Z,4.19
2022-09-26T06:39:15.082Z,3.79
2022-09-26T06:40:18.187Z,3.92
2022-09-26T06:41:20.755Z,3.95
2022-09-26T06:42:23.347Z,4.07
2022-09-26T06:43:25.789Z,3.93
2022-09-26T06:44:28.255Z,4.45
2022-09-26T06:45:30.702Z,3.25
2022-09-26T06:46:33.641Z,6.01
2022-09-26T06:47:36.231Z,3.53
2022-09-26T06:48:38.693Z,4.29
2022-09-26T06:49:41.133Z,4.44
2022-09-26T06:50:43.687Z,4.79
2022-09-26T06:51:46.278Z,5.43
2022-09-26T06:52:48.718Z,5.13
2022-09-26T06:53:52.988Z,4.65
2022-09-26T06:54:55.429Z,4.62
2022-09-26T06:55:57.925Z,4.47
2022-09-26T06:57:00.500Z,4.15
2022-09-26T06:58:02.950Z,3.33
2022-09-26T06:59:05.411Z,3.45
2022-09-26T07:00:08.271Z,5.45
2022-09-26T07:01:11.113Z,3.63
2022-09-26T07:02:14.016Z,4.25
2022-09-26T07:03:16.611Z,4.50
2022-09-26T07:04:19.059Z,3.35
2022-09-26T07:05:21.558Z,3.54
2022-09-26T07:06:24.211Z,3.37
2022-09-26T07:07:26.691Z,3.35
2022-09-26T07:08:50.417Z,3.49
2022-09-26T07:09:33.491Z,2.76
2022-09-26T07:10:36.144Z,3.46
2022-09-26T07:12:09.402Z,3.33
2022-09-26T07:12:42.982Z,3.19
2022-09-26T07:13:45.474Z,3.85
2022-09-26T07:14:52.826Z,4.54
2022-09-26T07:15:52.298Z,3.09
2022-09-26T07:16:55.323Z,2.93
2022-09-26T07:17:57.826Z,3.13
2022-09-26T07:19:00.263Z,2.70
2022-09-26T07:20:03.009Z,2.62
2022-09-26T07:21:05.654Z,3.18
2022-09-26T07:22:08.095Z,2.59
2022-09-26T07:23:10.588Z,2.39
2022-09-26T07:24:13.049Z,2.14
2022-09-26T07:25:15.537Z,3.07
2022-09-26T07:26:18.606Z,2.59
2022-09-26T07:27:21.038Z,2.19
2022-09-26T07:28:23.520Z,3.47
2022-09-26T07:29:25.964Z,2.95
2022-09-26T07:30:28.982Z,2.87
2022-09-26T07:31:31.507Z,2.89
2022-09-26T07:32:34.000Z,2.45
2022-09-26T07:33:36.509Z,3.00
2022-09-26T07:34:38.946Z,2.98
2022-09-26T07:35:41.382Z,2.17
2022-09-26T07:36:44.124Z,3.73
2022-09-26T07:37:46.564Z,4.79
2022-09-26T07:38:49.080Z,3.63
2022-09-26T07:39:54.721Z,3.25
2022-09-26T07:40:56.079Z,2.66
2022-09-26T07:41:58.957Z,3.17
2022-09-26T07:43:19.101Z,2.41
2022-09-26T07:45:26.133Z,2.35
2022-09-26T07:46:15.289Z,2.24
2022-09-26T07:47:17.849Z,2.63
2022-09-26T07:48:20.302Z,2.55
2022-09-26T07:49:22.795Z,2.42
2022-09-26T07:50:25.329Z,2.64
2022-09-26T07:51:27.772Z,2.49
2022-09-26T07:52:30.200Z,2.84
2022-09-26T07:53:32.636Z,2.50
2022-09-26T07:54:35.164Z,2.30
2022-09-26T07:55:37.649Z,2.67
2022-09-26T07:56:40.297Z,4.37
2022-09-26T07:57:42.790Z,4.31
2022-09-26T07:58:45.233Z,2.83
2022-09-26T07:59:47.699Z,2.54
2022-09-26T08:00:50.438Z,2.65
2022-09-26T08:01:52.984Z,3.21
2022-09-26T08:02:55.823Z,2.49
2022-09-26T08:03:58.424Z,2.43
2022-09-26T08:05:01.383Z,2.49
2022-09-26T08:06:04.378Z,2.68
2022-09-26T08:07:06.818Z,2.67
2022-09-26T08:08:09.250Z,2.66
2022-09-26T08:09:11.735Z,2.40
2022-09-26T08:10:15.106Z,2.45
2022-09-26T08:11:17.550Z,2.45
2022-09-26T08:12:20.164Z,3.67
2022-09-26T08:13:22.720Z,3.04
2022-09-26T08:14:25.164Z,2.64
2022-09-26T08:15:27.641Z,2.87
2022-09-26T08:16:30.450Z,2.69
2022-09-26T08:17:33.117Z,2.97
2022-09-26T08:18:35.579Z,2.99
2022-09-26T08:19:38.040Z,2.32
2022-09-26T08:20:40.846Z,2.32
2022-09-26T08:21:43.796Z,2.20
2022-09-26T08:22:46.281Z,2.22
2022-09-26T08:23:48.757Z,2.33
2022-09-26T08:24:51.202Z,2.34
2022-09-26T08:25:53.688Z,2.77
2022-09-26T08:26:56.232Z,2.84
2022-09-26T08:27:58.699Z,2.26
2022-09-26T08:29:01.210Z,1.81
2022-09-26T08:30:04.564Z,2.01
2022-09-26T08:31:07.082Z,2.75
2022-09-26T08:32:09.872Z,2.00
2022-09-26T08:33:12.328Z,1.69
2022-09-26T08:34:14.932Z,1.66
2022-09-26T08:35:17.608Z,2.39
2022-09-26T08:36:20.289Z,2.39
2022-09-26T08:37:22.745Z,2.05
2022-09-26T08:38:25.188Z,1.63
2022-09-26T08:39:32.524Z,1.90
2022-09-26T08:40:32.273Z,2.20
2022-09-26T08:41:35.187Z,1.84
2022-09-26T08:42:37.823Z,1.79
2022-09-26T08:43:40.264Z,2.85
2022-09-26T08:44:42.707Z,2.17
2022-09-26T08:45:47.959Z,2.13
2022-09-26T08:46:50.151Z,1.87
2022-09-26T08:47:52.759Z,1.60
2022-09-26T08:48:55.372Z,2.05
2022-09-26T08:49:57.830Z,1.93
2022-09-26T08:51:00.685Z,2.20
2022-09-26T08:52:03.176Z,2.19
2022-09-26T08:53:05.641Z,1.83
2022-09-26T08:54:08.086Z,1.75
2022-09-26T08:55:10.637Z,2.16
2022-09-26T08:56:13.376Z,2.02
2022-09-26T08:57:15.841Z,2.05
2022-09-26T08:58:18.296Z,1.97
2022-09-26T08:59:20.770Z,1.86
2022-09-26T09:00:23.811Z,1.86
2022-09-26T09:01:26.314Z,2.29
2022-09-26T09:02:29.059Z,2.01
2022-09-26T09:03:31.739Z,1.99
2022-09-26T09:04:34.202Z,1.95
2022-09-26T09:05:36.663Z,2.43
2022-09-26T09:06:39.514Z,2.04
2022-09-26T09:07:41.992Z,1.95
2022-09-26T09:08:44.432Z,2.31
2022-09-26T09:09:46.967Z,2.21
2022-09-26T09:10:49.856Z,2.23
2022-09-26T09:11:52.323Z,2.01
2022-09-26T09:12:54.802Z,1.76
2022-09-26T09:13:57.236Z,2.17
2022-09-26T09:15:23.433Z,3.29
2022-09-26T09:16:04.161Z,2.31
2022-09-26T09:17:06.689Z,2.43
2022-09-26T09:18:13.402Z,2.26
2022-09-26T09:19:13.600Z,2.19
2022-09-26T09:20:16.345Z,2.09
2022-09-26T09:21:19.100Z,2.51
2022-09-26T09:22:21.655Z,2.33
2022-09-26T09:23:24.136Z,2.15
2022-09-26T09:24:26.577Z,2.59
2022-09-26T09:25:29.420Z,3.17
2022-09-26T09:28:40.810Z,2.39
2022-09-26T09:29:48.866Z,2.67
2022-09-26T09:30:48.001Z,2.31
2022-09-26T09:31:50.728Z,2.01
2022-09-26T09:32:53.362Z,2.04
2022-09-26T09:33:55.849Z,2.08
2022-09-26T09:34:58.277Z,1.81
2022-09-26T09:36:00.719Z,2.15
2022-09-26T09:37:03.159Z,2.29
2022-09-26T09:38:05.607Z,2.70
2022-09-26T09:39:08.172Z,2.79
2022-09-26T09:40:11.021Z,2.29
2022-09-26T09:41:13.595Z,2.15
2022-09-26T09:42:16.034Z,2.37
2022-09-26T09:43:18.490Z,2.12
2022-09-26T09:44:20.964Z,2.17
2022-09-26T09:45:23.413Z,1.89
2022-09-26T09:46:26.148Z,1.90
2022-09-26T09:47:28.817Z,2.37
2022-09-26T09:48:31.323Z,2.28
2022-09-26T09:49:33.789Z,2.57
2022-09-26T09:50:36.551Z,2.70
2022-09-26T09:51:39.576Z,2.19
2022-09-26T09:52:42.452Z,1.82
2022-09-26T09:53:44.902Z,1.98
2022-09-26T09:54:47.386Z,1.91
2022-09-26T09:55:49.840Z,2.05
2022-09-26T09:56:52.537Z,2.09
2022-09-26T09:57:54.991Z,2.09
2022-09-26T09:58:57.434Z,1.83
2022-09-26T10:00:02.053Z,1.87
2022-09-26T10:01:04.279Z,2.58
2022-09-26T10:02:06.732Z,2.54
2022-09-26T10:03:09.310Z,2.15
2022-09-26T10:04:12.199Z,2.61
2022-09-26T10:05:14.884Z,2.69
2022-09-26T10:06:44.106Z,2.16
2022-09-26T10:07:22.269Z,2.40
2022-09-26T10:08:24.718Z,2.37
2022-09-26T10:09:39.354Z,2.69
2022-09-26T10:10:31.884Z,2.54
2022-09-26T10:11:34.365Z,2.35
2022-09-26T10:12:36.823Z,2.15
2022-09-26T10:13:39.267Z,2.38
2022-09-26T10:14:41.710Z,2.51
2022-09-26T10:15:44.273Z,2.11
2022-09-26T10:16:46.966Z,2.17
2022-09-26T10:18:19.602Z,2.18
2022-09-26T10:18:53.794Z,2.16
2022-09-26T10:19:56.282Z,2.37
2022-09-26T10:20:58.887Z,2.13
2022-09-26T10:22:01.330Z,2.09
2022-09-26T10:23:03.791Z,2.17
2022-09-26T10:24:07.454Z,2.35
2022-09-26T10:25:09.936Z,2.05
2022-09-26T10:26:12.813Z,2.35
2022-09-26T10:27:15.259Z,2.27
2022-09-26T10:28:17.714Z,6.79
2022-09-26T10:29:20.156Z,2.35
2022-09-26T10:30:22.814Z,1.81
2022-09-26T10:31:25.305Z,2.15
2022-09-26T10:32:27.744Z,2.32
2022-09-26T10:33:30.193Z,2.52
2022-09-26T10:34:32.665Z,1.69
2022-09-26T10:35:35.110Z,1.77
2022-09-26T10:36:37.678Z,1.93
2022-09-26T10:37:40.118Z,2.11
2022-09-26T10:38:42.627Z,2.71
2022-09-26T10:39:45.051Z,1.87
2022-09-26T10:40:47.750Z,2.03
2022-09-26T10:41:51.302Z,1.56
2022-09-26T10:42:53.748Z,1.88
2022-09-26T10:43:56.198Z,2.30
2022-09-26T10:44:58.643Z,2.75
2022-09-26T10:46:01.134Z,1.84
2022-09-26T10:47:03.673Z,2.09
2022-09-26T10:48:06.123Z,2.13
2022-09-26T10:49:08.559Z,1.36
2022-09-26T10:50:12.024Z,2.08
2022-09-26T10:51:14.466Z,1.89
2022-09-26T10:52:18.836Z,1.81
2022-09-26T10:53:21.352Z,2.05
2022-09-26T10:54:23.833Z,1.78
2022-09-26T10:55:26.292Z,1.86
2022-09-26T10:56:28.946Z,2.05
2022-09-26T10:57:31.430Z,2.05
2022-09-26T10:58:33.875Z,1.98
2022-09-26T10:59:36.427Z,2.43
2022-09-26T11:00:38.966Z,2.72
2022-09-26T11:01:41.492Z,3.13
2022-09-26T11:02:44.118Z,2.32
2022-09-26T11:03:46.634Z,1.97
2022-09-26T11:04:49.143Z,1.93
2022-09-26T11:05:51.707Z,1.72
2022-09-26T11:06:54.450Z,2.36
2022-09-26T11:07:56.938Z,1.79
2022-09-26T11:08:59.381Z,2.29
2022-09-26T11:10:01.839Z,2.27
2022-09-26T11:11:04.304Z,2.18
2022-09-26T11:12:06.847Z,2.97
2022-09-26T11:13:09.320Z,4.22
2022-09-26T11:14:11.766Z,2.65
2022-09-26T11:15:14.206Z,2.17
2022-09-26T11:16:17.254Z,2.00
2022-09-26T11:17:19.768Z,1.89
2022-09-26T11:18:22.402Z,1.77
2022-09-26T11:19:24.871Z,1.85
2022-09-26T11:20:27.323Z,2.07
2022-09-26T11:21:29.836Z,2.10
2022-09-26T11:22:32.525Z,2.16
2022-09-26T11:23:34.992Z,2.68
2022-09-26T11:24:37.477Z,2.73
2022-09-26T11:25:40.081Z,2.94
2022-09-26T11:26:42.737Z,2.34
2022-09-26T11:27:45.172Z,2.45
2022-09-26T11:28:47.787Z,2.57
2022-09-26T11:29:50.310Z,2.35
2022-09-26T11:30:53.072Z,2.05
2022-09-26T11:32:00.057Z,2.39
2022-09-26T11:33:00.050Z,3.68
2022-09-26T11:34:02.539Z,3.99
2022-09-26T11:35:05.011Z,2.67
2022-09-26T11:36:08.483Z,2.29
2022-09-26T11:37:10.921Z,2.55
2022-09-26T11:38:13.421Z,2.93
2022-09-26T11:39:16.079Z,3.16
2022-09-26T11:40:19.407Z,3.97
2022-09-26T11:41:22.896Z,2.43
2022-09-26T11:42:25.345Z,3.16
2022-09-26T11:43:27.798Z,2.24
2022-09-26T11:44:30.276Z,2.05
2022-09-26T11:45:36.163Z,2.62
2022-09-26T11:46:37.509Z,2.20
2022-09-26T11:47:40.124Z,2.29
2022-09-26T11:48:42.587Z,1.91
2022-09-26T11:49:45.073Z,2.09
2022-09-26T11:50:47.723Z,2.27
2022-09-26T11:51:50.161Z,2.67
2022-09-26T11:52:52.611Z,1.99
2022-09-26T11:53:55.380Z,2.54
2022-09-26T11:54:57.858Z,6.89
2022-09-26T11:56:00.302Z,10.88
2022-09-26T11:57:02.749Z,21.15
2022-09-26T11:58:05.215Z,7.47
2022-09-26T11:59:07.656Z,2.65
2022-09-26T12:00:10.250Z,3.77
2022-09-26T12:01:13.204Z,3.76
2022-09-26T12:02:15.810Z,2.02
2022-09-26T12:03:18.719Z,2.54
2022-09-26T12:04:21.582Z,2.24
2022-09-26T12:05:27.025Z,3.44
2022-09-26T12:06:28.613Z,3.75
2022-09-26T12:07:31.065Z,2.89
2022-09-26T12:08:33.837Z,2.45
2022-09-26T12:09:36.267Z,2.99
2022-09-26T12:10:38.873Z,2.78
2022-09-26T12:11:41.298Z,2.53
2022-09-26T12:12:43.851Z,2.24
2022-09-26T12:13:46.308Z,2.77
2022-09-26T12:14:48.763Z,2.31
2022-09-26T12:15:51.284Z,2.35
2022-09-26T12:16:54.209Z,2.67
2022-09-26T12:17:56.640Z,2.59
2022-09-26T12:18:59.081Z,2.57
2022-09-26T12:20:01.516Z,2.83
2022-09-26T12:21:03.989Z,2.45
2022-09-26T12:22:06.426Z,2.39
2022-09-26T12:23:08.865Z,2.43
2022-09-26T12:24:11.305Z,2.38
2022-09-26T12:25:17.857Z,2.37
2022-09-26T12:26:18.307Z,3.39
2022-09-26T12:27:20.743Z,2.64
2022-09-26T12:28:23.334Z,2.87
2022-09-26T12:29:25.772Z,2.93
2022-09-26T12:30:28.546Z,3.69
2022-09-26T12:31:31.072Z,3.01
2022-09-26T12:32:33.614Z,3.35
2022-09-26T12:33:36.070Z,2.86
2022-09-26T12:34:38.539Z,3.61
2022-09-26T12:35:40.964Z,3.01
2022-09-26T12:36:43.661Z,4.05
2022-09-26T12:37:46.170Z,4.39
2022-09-26T12:38:51.959Z,3.43
2022-09-26T12:39:53.077Z,2.98
2022-09-26T12:40:55.915Z,2.99
2022-09-26T12:41:58.638Z,3.82
2022-09-26T12:43:01.079Z,3.13
2022-09-26T12:44:03.527Z,3.49
2022-09-26T12:45:05.964Z,3.16
2022-09-26T12:46:08.659Z,2.82
2022-09-26T12:48:21.378Z,2.61
2022-09-26T12:49:23.820Z,2.87
2022-09-26T12:50:26.359Z,3.66
2022-09-26T12:51:28.819Z,2.94
2022-09-26T12:52:31.332Z,3.15
2022-09-26T12:53:33.786Z,2.79
2022-09-26T12:54:36.254Z,2.73
2022-09-26T12:55:38.694Z,2.73
2022-09-26T12:56:41.235Z,3.23
2022-09-26T12:57:43.711Z,2.81
2022-09-26T12:58:46.347Z,4.21
2022-09-26T12:59:48.815Z,3.43
2022-09-26T13:00:51.459Z,3.59
2022-09-26T13:01:54.087Z,3.69
2022-09-26T13:02:56.944Z,3.37
2022-09-26T13:03:59.501Z,3.35
2022-09-26T13:05:01.979Z,3.09
2022-09-26T13:06:08.543Z,3.45
2022-09-26T13:07:18.822Z,3.14
2022-09-26T13:08:13.332Z,3.14
2022-09-26T13:09:16.030Z,2.71
2022-09-26T13:10:19.013Z,3.16
2022-09-26T13:11:21.460Z,3.97
2022-09-26T13:12:23.901Z,3.44
2022-09-26T13:13:26.711Z,3.01
2022-09-26T13:14:29.150Z,3.47
2022-09-26T13:15:31.626Z,3.23
2022-09-26T13:16:34.368Z,2.95
2022-09-26T13:17:36.817Z,3.27
2022-09-26T13:18:39.298Z,4.22
2022-09-26T13:19:41.762Z,3.81
2022-09-26T13:20:44.405Z,3.69
2022-09-26T13:21:46.854Z,3.85
2022-09-26T13:22:49.306Z,3.43
2022-09-26T13:23:51.912Z,5.10
2022-09-26T13:24:54.375Z,3.44
2022-09-26T13:25:56.825Z,3.87
2022-09-26T13:26:59.472Z,3.57
2022-09-26T13:28:01.929Z,3.38
2022-09-26T13:29:17.145Z,4.36
2022-09-26T13:30:09.383Z,3.61
2022-09-26T13:31:11.891Z,3.82
2022-09-26T13:32:14.412Z,3.27
2022-09-26T13:33:16.858Z,3.73
2022-09-26T13:34:19.345Z,4.45
2022-09-26T13:35:21.816Z,4.28
2022-09-26T13:36:24.369Z,3.34
2022-09-26T13:37:26.819Z,3.23
2022-09-26T13:38:29.471Z,4.69
2022-09-26T13:39:32.203Z,3.91
2022-09-26T13:40:34.923Z,3.69
2022-09-26T13:41:37.793Z,4.03
2022-09-26T13:42:40.235Z,3.41
2022-09-26T13:43:42.783Z,4.29
2022-09-26T13:44:45.298Z,4.31
2022-09-26T13:45:47.752Z,4.59
2022-09-26T13:46:50.568Z,4.73
2022-09-26T13:47:53.058Z,3.71
2022-09-26T13:48:55.503Z,4.09
2022-09-26T13:49:58.032Z,4.32
2022-09-26T13:51:00.580Z,4.02
2022-09-26T13:52:03.046Z,4.50
2022-09-26T13:53:05.677Z,5.49
2022-09-26T13:54:08.120Z,6.59
2022-09-26T13:55:10.602Z,5.89
2022-09-26T13:56:13.860Z,4.64
2022-09-26T13:57:16.328Z,3.67
2022-09-26T13:58:18.778Z,4.16
2022-09-26T13:59:21.213Z,4.92